createdAt,value
2023-01-07T00:04:46.131Z,-21.76
2023-01-07T00:09:50.918Z,-21.76
2023-01-07T00:14:56.158Z,-21.89
2023-01-07T00:20:01.575Z,-21.93
2023-01-07T00:25:06.635Z,-21.94
2023-01-07T00:30:11.220Z,-21.97
2023-01-07T00:35:25.915Z,-22.11
2023-01-07T00:40:32.268Z,-21.89
2023-01-07T00:45:37.463Z,-21.99
2023-01-07T00:50:42.071Z,-21.84
2023-01-07T00:55:50.485Z,-21.81
2023-01-07T01:01:01.135Z,-21.74
2023-01-07T01:06:08.050Z,-21.65
2023-01-07T01:11:14.535Z,-21.60
2023-01-07T01:16:19.560Z,-21.62
2023-01-07T01:21:26.055Z,-21.83
2023-01-07T01:26:29.792Z,-21.69
2023-01-07T01:31:34.560Z,-21.45
2023-01-07T01:36:44.526Z,-21.35
2023-01-07T01:41:49.624Z,-21.45
2023-01-07T01:46:55.699Z,-21.56
2023-01-07T01:52:09.773Z,-21.55
2023-01-07T01:57:22.497Z,-21.51
2023-01-07T02:02:40.551Z,-21.47
2023-01-07T02:07:44.702Z,-21.32
2023-01-07T02:13:24.433Z,-21.38
2023-01-07T02:18:48.267Z,-21.40
2023-01-07T02:23:59.527Z,-21.36
2023-01-07T02:29:20.490Z,-21.23
2023-01-07T02:34:56.486Z,-21.14
2023-01-07T02:40:49.731Z,-21.00
2023-01-07T02:46:05.520Z,-20.87
2023-01-07T02:51:13.360Z,-20.93
2023-01-07T02:56:43.131Z,-21.05
2023-01-07T03:02:11.564Z,-20.95
2023-01-07T03:07:27.547Z,-20.83
2023-01-07T03:12:49.557Z,-20.88
2023-01-07T03:18:17.078Z,-20.95
2023-01-07T03:23:27.608Z,-20.98
2023-01-07T03:28:41.534Z,-21.06
2023-01-07T03:34:02.497Z,-20.95
2023-01-07T03:39:12.665Z,-20.96
2023-01-07T03:44:17.923Z,-21.29
2023-01-07T03:49:24.748Z,-21.13
2023-01-07T03:54:59.944Z,-21.15
2023-01-07T04:00:12.597Z,-21.20
2023-01-07T04:05:27.406Z,-21.24
2023-01-07T04:10:33.110Z,-21.05
2023-01-07T04:15:39.492Z,-20.93
2023-01-07T04:20:49.935Z,-20.71
2023-01-07T04:25:55.518Z,-20.66
2023-01-07T04:31:04.439Z,-20.69
2023-01-07T04:36:14.152Z,-20.56
2023-01-07T04:41:18.306Z,-20.46
2023-01-07T04:46:23.604Z,-20.36
2023-01-07T04:51:29.550Z,-20.18
2023-01-07T04:56:35.528Z,-19.99
2023-01-07T05:01:41.212Z,-19.89
2023-01-07T05:06:48.828Z,-19.79
2023-01-07T05:11:56.165Z,-19.95
2023-01-07T05:17:01.091Z,-19.43
2023-01-07T05:22:08.947Z,-19.34
2023-01-07T05:27:17.522Z,-19.13
2023-01-07T05:32:24.620Z,-18.98
2023-01-07T05:37:38.209Z,-18.86
2023-01-07T05:42:45.803Z,-18.70
2023-01-07T05:47:51.655Z,-18.56
2023-01-07T05:52:55.415Z,-18.44
2023-01-07T05:58:05.412Z,-18.28
2023-01-07T06:03:11.925Z,-18.19
2023-01-07T06:08:21.538Z,-18.14
2023-01-07T06:13:25.489Z,-18.06
2023-01-07T06:18:30.598Z,-17.98
2023-01-07T06:23:35.512Z,-17.88
2023-01-07T06:28:39.314Z,-17.70
2023-01-07T06:33:43.377Z,-17.51
2023-01-07T06:38:49.336Z,-17.36
2023-01-07T06:43:55.847Z,-17.23
2023-01-07T06:49:04.156Z,-17.11
2023-01-07T06:54:11.798Z,-16.98
2023-01-07T06:59:16.566Z,-16.85
2023-01-07T07:04:23.783Z,-16.71
2023-01-07T07:09:28.323Z,-16.51
2023-01-07T07:14:34.434Z,-16.29
2023-01-07T07:19:39.971Z,-16.07
2023-01-07T07:24:48.551Z,-15.91
2023-01-07T07:29:52.505Z,-15.77
2023-01-07T07:34:56.917Z,-15.71
2023-01-07T07:40:01.637Z,-15.43
2023-01-07T07:45:09.058Z,-15.15
2023-01-07T07:50:15.001Z,-14.84
2023-01-07T07:55:26.110Z,-14.54
2023-01-07T08:00:34.812Z,-14.27
2023-01-07T08:05:43.687Z,-14.03
2023-01-07T08:10:50.893Z,-13.82
2023-01-07T08:15:54.876Z,-13.63
2023-01-07T08:21:01.455Z,-13.49
2023-01-07T08:26:09.821Z,-13.35
2023-01-07T08:31:22.262Z,-13.21
2023-01-07T08:36:26.301Z,-13.09
2023-01-07T08:41:31.406Z,-12.91
2023-01-07T08:46:40.509Z,-12.78
2023-01-07T08:51:45.576Z,-12.63
2023-01-07T08:56:50.153Z,-12.53
2023-01-07T09:01:54.226Z,-12.42
2023-01-07T09:06:59.097Z,-12.33
2023-01-07T09:12:10.754Z,-12.24
2023-01-07T09:17:16.475Z,-12.18
2023-01-07T09:22:21.295Z,-12.12
2023-01-07T09:27:32.071Z,-12.05
2023-01-07T09:32:37.766Z,-11.98
2023-01-07T09:37:44.280Z,-11.96
2023-01-07T09:43:10.515Z,-11.91
2023-01-07T09:48:38.148Z,-11.86
2023-01-07T09:53:51.099Z,-11.82
2023-01-07T09:59:00.118Z,-11.76
2023-01-07T10:04:24.329Z,-11.71
2023-01-07T10:10:13.760Z,-11.63
2023-01-07T10:15:28.463Z,-11.53
2023-01-07T10:20:57.685Z,-11.41
2023-01-07T10:26:05.066Z,-11.32
2023-01-07T10:31:22.407Z,-11.20
2023-01-07T10:36:59.329Z,-11.13
2023-01-07T10:42:35.256Z,-11.10
2023-01-07T10:47:51.729Z,-11.03
2023-01-07T10:53:23.315Z,-10.97
2023-01-07T10:58:41.505Z,-10.92
2023-01-07T11:03:46.286Z,-10.85
2023-01-07T11:08:50.882Z,-10.78
2023-01-07T11:14:08.135Z,-10.92
2023-01-07T11:19:15.716Z,-10.61
2023-01-07T11:24:20.669Z,-10.55
2023-01-07T11:29:28.489Z,-10.45
2023-01-07T11:34:49.715Z,-10.35
2023-01-07T11:40:04.336Z,-10.25
2023-01-07T11:45:16.129Z,-10.14
2023-01-07T11:50:36.505Z,-10.05
2023-01-07T11:55:41.187Z,-10.00
2023-01-07T12:00:47.999Z,-9.91
2023-01-07T12:05:58.923Z,-9.81
2023-01-07T12:11:15.120Z,-9.64
2023-01-07T12:16:31.410Z,-9.55
2023-01-07T12:22:04.651Z,-9.41
2023-01-07T12:27:54.870Z,-9.30
2023-01-07T12:33:35.621Z,-9.24
2023-01-07T12:38:55.683Z,-9.09
2023-01-07T12:44:20.741Z,-8.98
2023-01-07T12:49:45.942Z,-8.83
2023-01-07T12:55:03.912Z,-8.75
2023-01-07T13:00:27.440Z,-8.61
2023-01-07T13:05:47.751Z,-8.49
2023-01-07T13:11:49.677Z,-8.35
2023-01-07T13:17:17.952Z,-8.25
2023-01-07T13:22:41.824Z,-8.19
2023-01-07T13:28:23.223Z,-8.14
2023-01-07T13:33:48.113Z,-8.04
2023-01-07T13:39:17.414Z,-7.97
2023-01-07T13:45:12.472Z,-7.91
2023-01-07T13:50:58.949Z,-7.85
2023-01-07T13:56:40.508Z,-7.87
2023-01-07T14:02:24.120Z,-7.84
2023-01-07T14:07:34.572Z,-7.79
2023-01-07T14:13:21.345Z,-7.74
2023-01-07T14:18:38.301Z,-7.70
2023-01-07T14:24:12.756Z,-7.69
2023-01-07T14:29:43.180Z,-7.66
2023-01-07T14:34:59.270Z,-7.59
2023-01-07T14:40:36.245Z,-7.54
2023-01-07T14:45:41.298Z,-7.50
2023-01-07T14:51:07.226Z,-7.48
2023-01-07T14:56:21.656Z,-7.40
2023-01-07T15:01:48.415Z,-7.36
2023-01-07T15:06:57.959Z,-7.29
2023-01-07T15:12:27.939Z,-7.25
2023-01-07T15:17:35.047Z,-7.19
2023-01-07T15:22:55.711Z,-7.14
2023-01-07T15:28:19.311Z,-7.14
2023-01-07T15:33:46.666Z,-7.14
2023-01-07T15:38:54.626Z,-7.09
2023-01-07T15:44:09.679Z,-7.09
2023-01-07T15:49:14.858Z,-7.09
2023-01-07T15:54:40.688Z,-7.08
2023-01-07T15:59:49.477Z,-7.12
2023-01-07T16:04:58.422Z,-7.12
2023-01-07T16:10:01.988Z,-7.12
2023-01-07T16:15:31.495Z,-7.15
2023-01-07T16:20:50.189Z,-7.15
2023-01-07T16:26:21.229Z,-7.11
2023-01-07T16:31:30.969Z,-7.11
2023-01-07T16:36:44.143Z,-7.08
2023-01-07T16:41:48.208Z,-7.05
2023-01-07T16:47:09.034Z,-7.03
2023-01-07T16:52:15.906Z,-7.02
2023-01-07T16:57:30.515Z,-6.99
2023-01-07T17:03:00.714Z,-6.92
2023-01-07T17:08:23.496Z,-6.95
2023-01-07T17:13:42.084Z,-6.90
2023-01-07T17:18:54.091Z,-6.88
2023-01-07T17:24:02.655Z,-6.83
2023-01-07T17:29:13.801Z,-6.77
2023-01-07T17:34:19.356Z,-6.78
2023-01-07T17:39:24.825Z,-6.76
2023-01-07T17:44:28.688Z,-6.70
2023-01-07T17:49:33.623Z,-6.78
2023-01-07T17:54:40.502Z,-6.57
2023-01-07T17:59:49.671Z,-6.55
2023-01-07T18:04:54.467Z,-6.44
2023-01-07T18:09:59.956Z,-6.34
2023-01-07T18:15:16.543Z,-6.24
2023-01-07T18:20:24.288Z,-6.17
2023-01-07T18:25:32.477Z,-6.12
2023-01-07T18:30:40.493Z,-6.10
2023-01-07T18:35:45.332Z,-6.05
2023-01-07T18:40:50.466Z,-5.98
2023-01-07T18:45:55.103Z,-5.90
2023-01-07T18:50:59.789Z,-5.84
2023-01-07T18:56:09.243Z,-5.84
2023-01-07T19:01:15.346Z,-5.72
2023-01-07T19:06:19.773Z,-5.67
2023-01-07T19:11:23.727Z,-5.61
2023-01-07T19:16:28.584Z,-5.58
2023-01-07T19:21:33.307Z,-5.55
2023-01-07T19:26:38.610Z,-5.51
2023-01-07T19:31:46.234Z,-5.53
2023-01-07T19:36:49.963Z,-5.44
2023-01-07T19:41:53.878Z,-5.41
2023-01-07T19:46:59.523Z,-5.34
2023-01-07T19:52:06.191Z,-5.27
2023-01-07T19:57:10.254Z,-5.23
2023-01-07T20:02:15.460Z,-5.17
2023-01-07T20:07:19.481Z,-5.12
2023-01-07T20:12:25.055Z,-5.09
2023-01-07T20:17:30.439Z,-5.05
2023-01-07T20:22:37.383Z,-5.04
2023-01-07T20:27:41.415Z,-5.01
2023-01-07T20:32:47.681Z,-4.92
2023-01-07T20:37:51.368Z,-4.88
2023-01-07T20:42:59.585Z,-4.84
2023-01-07T20:48:05.736Z,-4.78
2023-01-07T20:53:12.086Z,-4.78
2023-01-07T20:58:16.861Z,-4.78
2023-01-07T21:03:20.596Z,-4.78
2023-01-07T21:08:27.026Z,-4.75
2023-01-07T21:13:32.456Z,-4.74
2023-01-07T21:18:39.660Z,-4.72
2023-01-07T21:23:49.583Z,-4.76
2023-01-07T21:28:56.866Z,-4.69
2023-01-07T21:34:01.603Z,-4.68
2023-01-07T21:39:06.496Z,-4.65
2023-01-07T21:44:14.436Z,-4.62
2023-01-07T21:49:20.281Z,-4.58
2023-01-07T21:54:24.253Z,-4.56
2023-01-07T21:59:28.117Z,-4.53
2023-01-07T22:04:32.717Z,-4.48
2023-01-07T22:09:36.477Z,-4.48
2023-01-07T22:14:40.875Z,-4.47
2023-01-07T22:19:44.790Z,-4.49
2023-01-07T22:24:49.429Z,-4.47
2023-01-07T22:29:57.860Z,-4.48
2023-01-07T22:35:04.520Z,-4.48
2023-01-07T22:40:10.267Z,-4.39
2023-01-07T22:45:22.888Z,-4.36
2023-01-07T22:50:28.904Z,-4.34
2023-01-07T22:55:36.114Z,-4.35
2023-01-07T23:00:52.790Z,-4.31
2023-01-07T23:05:58.499Z,-4.30
2023-01-07T23:11:02.543Z,-4.30
2023-01-07T23:16:10.356Z,-4.29
2023-01-07T23:21:15.496Z,-4.28
2023-01-07T23:26:22.587Z,-4.27
2023-01-07T23:31:27.736Z,-4.27
2023-01-07T23:36:33.097Z,-4.27
2023-01-07T23:41:38.677Z,-4.27
2023-01-07T23:46:43.138Z,-4.24
2023-01-07T23:51:50.414Z,-4.23
2023-01-07T23:56:57.508Z,-4.21
